Time;durP1;ratioP1;P1;durP2;ratioP2;P2;SDS_P1;SDS_P2;PMS_P1;PMS_P2;Temp;Humidity;BMP_temperature;BMP_pressure;BME280_temperature;BME280_humidity;BME280_pressure;Samples;Min_cycle;Max_cycle;Signal;HPM_P1;HPM_P2
2022/09/03 00:00:23;;;;;;;11.20;10.40;;;;;;;16.30;99.54;92829.69;5031437;28;20230;-68
2022/09/03 00:03:04;;;;;;;11.60;10.77;;;;;;;16.39;98.30;92831.25;5031528;28;20191;-69
2022/09/03 00:05:47;;;;;;;11.23;10.43;;;;;;;16.31;98.28;92842.53;5030973;28;20230;-70
2022/09/03 00:08:53;;;;;;;11.53;10.73;;;;;;;16.33;98.15;92839.63;5011588;28;20230;-69
2022/09/03 00:11:28;;;;;;;11.23;10.43;;;;;;;16.23;98.66;92843.31;5017434;28;20221;-70
2022/09/03 00:14:04;;;;;;;11.83;10.87;;;;;;;16.11;99.12;92837.84;5011203;28;20226;-69
2022/09/03 00:16:43;;;;;;;11.47;10.60;;;;;;;16.08;99.00;92834.00;5019992;28;20210;-69
2022/09/03 00:19:14;;;;;;;11.53;10.63;;;;;;;16.11;99.31;92843.13;5030999;28;20221;-69
2022/09/03 00:21:44;;;;;;;11.33;10.43;;;;;;;16.08;99.27;92827.94;5040252;28;20191;-69
2022/09/03 00:24:13;;;;;;;12.13;11.00;;;;;;;16.14;99.13;92845.16;5050641;28;20209;-69
2022/09/03 00:26:44;;;;;;;11.33;10.33;;;;;;;16.15;98.82;92846.72;5050121;28;20213;-69
2022/09/03 00:29:19;;;;;;;11.07;10.27;;;;;;;16.05;99.09;92836.44;5050597;28;20232;-69
2022/09/03 00:31:52;;;;;;;11.70;10.80;;;;;;;16.14;99.51;92839.88;5040552;28;20197;-69
2022/09/03 00:34:28;;;;;;;11.70;10.57;;;;;;;16.17;99.25;92835.88;5024923;28;20254;-69
2022/09/03 00:36:53;;;;;;;12.83;11.90;;;;;;;16.13;99.53;92840.97;5030860;28;20199;-69
2022/09/03 00:39:22;;;;;;;11.23;10.33;;;;;;;16.10;98.96;92841.56;5030779;28;20229;-69
2022/09/03 00:41:55;;;;;;;11.27;10.37;;;;;;;16.29;97.93;92841.31;5030789;28;20182;-68
2022/09/03 00:44:44;;;;;;;11.67;10.73;;;;;;;16.02;98.96;92837.84;5030593;28;20223;-68
2022/09/03 00:47:12;;;;;;;11.43;10.53;;;;;;;16.06;98.39;92833.50;5030321;28;20217;-70
2022/09/03 00:49:54;;;;;;;11.57;10.57;;;;;;;16.02;99.27;92834.44;5030220;28;20261;-68
2022/09/03 00:52:25;;;;;;;11.63;10.73;;;;;;;16.25;98.49;92841.16;5014791;28;20199;-69
2022/09/03 00:54:53;;;;;;;12.57;11.60;;;;;;;16.13;98.33;92845.44;5010676;28;20235;-69
2022/09/03 00:57:24;;;;;;;11.40;10.50;;;;;;;16.25;98.55;92848.28;5025447;28;20262;-67
2022/09/03 00:59:57;;;;;;;12.37;11.30;;;;;;;16.31;98.57;92853.09;5030728;28;20231;-69
2022/09/03 01:02:34;;;;;;;11.73;10.80;;;;;;;16.13;98.96;92846.22;5030269;28;20262;-69
2022/09/03 01:05:08;;;;;;;12.00;11.00;;;;;;;16.20;98.50;92840.53;5029764;28;20306;-69
2022/09/03 01:07:54;;;;;;;12.30;11.30;;;;;;;16.24;99.33;92841.44;5046508;28;20229;-69
2022/09/03 01:10:43;;;;;;;11.63;10.70;;;;;;;16.25;98.82;92838.50;5050111;28;20286;-68
2022/09/03 01:13:30;;;;;;;12.60;11.43;;;;;;;16.27;98.75;92841.63;5024239;28;20272;-70
2022/09/03 01:16:18;;;;;;;14.03;12.83;;;;;;;16.09;100.00;92840.03;5029312;28;20208;-69
2022/09/03 01:18:49;;;;;;;13.87;12.37;;;;;;;16.15;100.00;92836.19;5029527;28;20417;-69
2022/09/03 01:21:37;;;;;;;11.50;10.60;;;;;;;16.05;99.87;92836.44;5029511;28;20215;-69
2022/09/03 01:24:06;;;;;;;12.17;11.17;;;;;;;15.97;100.00;92831.94;5029721;28;20231;-68
2022/09/03 01:26:52;;;;;;;13.13;11.93;;;;;;;15.82;100.00;92829.72;5028664;28;20233;-69
2022/09/03 01:29:17;;;;;;;11.73;10.73;;;;;;;15.91;99.99;92839.19;5029194;28;20286;-70
2022/09/03 01:31:48;;;;;;;12.80;11.80;;;;;;;16.05;100.00;92854.88;5029756;28;20190;-69
2022/09/03 01:34:21;;;;;;;11.00;10.20;;;;;;;16.02;98.97;92855.50;5029637;28;20234;-69
2022/09/03 01:36:55;;;;;;;12.40;11.40;;;;;;;15.70;99.96;92853.97;5029585;28;20183;-69
2022/09/03 01:39:48;;;;;;;12.23;11.13;;;;;;;15.84;100.00;92853.91;5029593;28;20214;-68
2022/09/03 01:42:40;;;;;;;12.27;11.37;;;;;;;15.77;99.83;92853.53;5029702;28;20190;-70
2022/09/03 01:45:27;;;;;;;11.87;10.73;;;;;;;15.72;100.00;92856.34;5029288;28;20230;-69
2022/09/03 01:48:10;;;;;;;12.97;11.87;;;;;;;15.74;100.00;92848.88;5028914;28;20221;-68
2022/09/03 01:50:49;;;;;;;13.03;12.10;;;;;;;15.82;99.77;92848.16;5029406;28;20250;-69
2022/09/03 01:53:21;;;;;;;11.03;10.13;;;;;;;15.83;98.94;92841.78;5049770;28;20213;-69
2022/09/03 01:56:14;;;;;;;11.33;10.53;;;;;;;15.82;99.35;92845.50;5046520;28;20229;-69
2022/09/03 01:58:59;;;;;;;12.43;11.40;;;;;;;15.58;99.48;92831.97;5029623;28;20191;-69
2022/09/03 02:01:33;;;;;;;11.63;10.53;;;;;;;15.80;99.04;92834.50;5029373;28;20179;-67
2022/09/03 02:03:59;;;;;;;12.73;11.63;;;;;;;15.81;99.09;92843.97;5029364;28;20218;-69
2022/09/03 02:06:32;;;;;;;12.03;11.13;;;;;;;15.88;98.54;92839.03;5029490;28;20265;-69
2022/09/03 02:08:57;;;;;;;11.77;10.93;;;;;;;15.97;98.07;92847.72;5028880;28;20237;-69
2022/09/03 02:11:23;;;;;;;12.07;11.17;;;;;;;15.95;97.49;92840.13;5029627;28;20198;-69
2022/09/03 02:13:56;;;;;;;10.43;9.63;;;;;;;15.89;98.42;92846.63;5009816;28;20265;-69
2022/09/03 02:16:26;;;;;;;10.67;9.97;;;;;;;15.81;98.75;92852.63;5016709;28;20262;-69
2022/09/03 02:19:14;;;;;;;12.20;11.30;;;;;;;15.85;97.97;92866.75;5029226;28;20231;-68
2022/09/03 02:21:47;;;;;;;10.77;9.97;;;;;;;15.80;97.30;92852.94;5029292;28;20201;-69
2022/09/03 02:24:13;;;;;;;12.23;11.17;;;;;;;15.64;98.19;92828.13;5029250;28;20230;-68
2022/09/03 02:26:38;;;;;;;11.57;10.70;;;;;;;15.79;98.15;92860.06;5029124;28;20221;-69
2022/09/03 02:29:04;;;;;;;11.40;10.60;;;;;;;15.85;98.29;92860.69;5029153;28;20226;-69
2022/09/03 02:31:30;;;;;;;12.00;11.20;;;;;;;15.71;98.82;92860.81;5029151;28;20182;-69
2022/09/03 02:33:56;;;;;;;12.23;11.33;;;;;;;15.67;98.35;92853.81;5030519;28;20251;-69
2022/09/03 02:36:33;;;;;;;11.77;10.77;;;;;;;15.88;97.79;92871.41;5032943;28;20221;-69
2022/09/03 02:38:58;;;;;;;12.63;11.63;;;;;;;15.86;97.39;92872.78;5033008;28;20234;-69
2022/09/03 02:41:26;;;;;;;11.77;10.87;;;;;;;15.74;98.24;92864.69;5040366;28;20205;-68
2022/09/03 02:44:16;;;;;;;11.93;11.10;;;;;;;15.88;97.95;92875.88;5052217;28;20222;-68
2022/09/03 02:46:53;;;;;;;12.87;11.77;;;;;;;15.84;97.93;92870.44;5042381;28;20237;-69
2022/09/03 02:49:19;;;;;;;12.10;11.07;;;;;;;15.49;99.08;92841.66;5032752;28;20245;-69
2022/09/03 02:51:44;;;;;;;11.90;10.80;;;;;;;15.55;99.26;92869.38;5031363;28;20197;-69
2022/09/03 02:54:11;;;;;;;12.00;11.10;;;;;;;15.66;98.99;92870.69;5032463;28;21925;-69
2022/09/03 02:56:37;;;;;;;12.10;11.03;;;;;;;15.69;99.08;92881.38;5032706;28;20167;-69
2022/09/03 02:59:05;;;;;;;12.70;11.70;;;;;;;15.71;98.32;92873.97;5032620;28;20230;-69
2022/09/03 03:01:31;;;;;;;12.27;11.43;;;;;;;15.86;98.54;92875.41;5040627;28;20194;-69
2022/09/03 03:03:56;;;;;;;12.90;11.80;;;;;;;15.81;98.77;92865.78;5052209;28;20679;-69
2022/09/03 03:06:22;;;;;;;11.97;11.00;;;;;;;15.72;98.36;92875.50;5039844;28;20287;-69
2022/09/03 03:08:49;;;;;;;12.83;11.83;;;;;;;15.75;99.14;92874.91;5032199;28;20269;-69
2022/09/03 03:11:17;;;;;;;11.73;10.87;;;;;;;15.49;99.59;92863.47;5032819;28;20202;-70
2022/09/03 03:13:43;;;;;;;12.47;11.63;;;;;;;15.73;99.72;92873.66;5032007;28;20194;-68
2022/09/03 03:16:09;;;;;;;12.93;11.93;;;;;;;15.63;100.00;92879.19;5037359;28;20183;-69
2022/09/03 03:18:35;;;;;;;14.10;12.87;;;;;;;15.57;100.00;92870.66;5052070;28;20243;-70
2022/09/03 03:21:09;;;;;;;13.77;12.67;;;;;;;15.56;100.00;92873.59;5047654;28;20186;-70
2022/09/03 03:23:35;;;;;;;13.53;12.33;;;;;;;15.36;100.00;92871.44;5032141;28;20179;-70
2022/09/03 03:26:05;;;;;;;14.07;12.73;;;;;;;15.22;100.00;92831.28;5035411;28;20182;-69
2022/09/03 03:28:34;;;;;;;13.17;12.07;;;;;;;15.44;100.00;92868.09;5052098;28;20194;-69
2022/09/03 03:31:10;;;;;;;13.23;12.03;;;;;;;15.60;100.00;92859.50;5047719;28;20181;-68
2022/09/03 03:33:37;;;;;;;13.83;12.53;;;;;;;15.58;100.00;92881.97;5032174;28;20197;-68
2022/09/03 03:36:10;;;;;;;13.50;12.30;;;;;;;15.60;100.00;92879.78;5031910;28;20201;-69
2022/09/03 03:38:36;;;;;;;14.37;12.83;;;;;;;15.73;100.00;92871.03;5032099;28;20187;-69
2022/09/03 03:41:08;;;;;;;13.97;12.77;;;;;;;15.71;100.00;92870.56;5035916;28;20196;-68
2022/09/03 03:43:33;;;;;;;14.10;12.83;;;;;;;15.43;100.00;92848.91;5036622;28;20187;-70
2022/09/03 03:45:59;;;;;;;13.77;12.43;;;;;;;15.71;100.00;92873.19;5031570;28;20182;-68
2022/09/03 03:48:25;;;;;;;13.83;12.63;;;;;;;15.65;100.00;92879.66;5031984;28;20194;-68
2022/09/03 03:50:51;;;;;;;14.73;13.33;;;;;;;15.52;100.00;92878.66;5033303;28;20291;-71
2022/09/03 03:53:16;;;;;;;13.60;12.50;;;;;;;15.52;100.00;92865.50;5051841;28;20269;-68
2022/09/03 03:55:41;;;;;;;13.60;12.53;;;;;;;15.78;100.00;92869.03;5049292;28;20256;-69
2022/09/03 03:58:07;;;;;;;12.63;11.63;;;;;;;15.69;100.00;92870.84;5032026;28;20179;-69
2022/09/03 04:00:36;;;;;;;14.63;13.27;;;;;;;15.56;100.00;92869.09;5031470;28;20237;-71
2022/09/03 04:03:03;;;;;;;14.03;12.63;;;;;;;15.50;100.00;92874.78;5012471;28;20198;-69
2022/09/03 04:05:28;;;;;;;13.77;12.53;;;;;;;15.61;100.00;92879.47;5016605;28;20214;-69
2022/09/03 04:07:54;;;;;;;14.17;12.87;;;;;;;15.59;100.00;92883.50;5031078;28;20265;-70
2022/09/03 04:10:19;;;;;;;13.90;12.73;;;;;;;15.66;100.00;92878.56;5031558;28;20222;-69
2022/09/03 04:12:45;;;;;;;15.70;14.17;;;;;;;15.38;100.00;92877.97;5031229;28;20199;-69
2022/09/03 04:15:11;;;;;;;13.50;12.10;;;;;;;15.63;100.00;92879.19;5031394;28;20231;-69
2022/09/03 04:17:36;;;;;;;14.97;13.57;;;;;;;15.54;100.00;92876.53;5030716;28;20218;-69
2022/09/03 04:20:03;;;;;;;14.83;13.37;;;;;;;15.20;100.00;92873.66;5030685;28;20229;-69
2022/09/03 04:22:28;;;;;;;14.83;13.40;;;;;;;15.31;100.00;92874.19;5030877;28;20187;-69
2022/09/03 04:24:54;;;;;;;15.03;13.53;;;;;;;15.66;100.00;92881.19;5030659;28;20270;-69
2022/09/03 04:27:19;;;;;;;12.37;11.37;;;;;;;15.49;100.00;92867.97;5030994;28;20227;-70
2022/09/03 04:29:45;;;;;;;14.17;12.73;;;;;;;15.47;100.00;92885.91;5030559;28;20233;-70
2022/09/03 04:34:54;;;;;;;13.63;12.63;;;;;;;15.69;100.00;92867.44;5030684;28;20230;-69
2022/09/03 04:37:20;;;;;;;12.57;11.57;;;;;;;15.75;100.00;92866.25;5030828;28;20187;-69
2022/09/03 04:39:45;;;;;;;13.40;12.30;;;;;;;15.84;100.00;92885.50;5030388;28;20218;-68
2022/09/03 04:42:11;;;;;;;13.70;12.40;;;;;;;15.78;100.00;92905.13;5030719;28;20179;-69
2022/09/03 04:44:37;;;;;;;13.70;12.13;;;;;;;15.54;100.00;92912.56;5030590;28;20241;-69
2022/09/03 04:47:04;;;;;;;13.50;12.27;;;;;;;15.61;100.00;92913.69;5030727;28;20263;-69
2022/09/03 04:49:29;;;;;;;13.90;12.63;;;;;;;15.91;100.00;92914.78;5030621;28;20222;-69
2022/09/03 04:51:55;;;;;;;13.80;12.60;;;;;;;15.82;100.00;92920.03;5030592;28;20186;-68
2022/09/03 04:54:20;;;;;;;13.67;12.37;;;;;;;15.59;100.00;92875.59;5030474;28;20235;-69
2022/09/03 04:56:46;;;;;;;13.40;12.10;;;;;;;15.70;100.00;92895.34;5040019;28;20182;-69
2022/09/03 04:59:12;;;;;;;15.90;11.47;;;;;;;15.91;100.00;92936.63;5050307;28;20289;-69
2022/09/03 05:01:38;;;;;;;13.00;11.90;;;;;;;16.07;100.00;92929.13;5041076;28;20195;-69
2022/09/03 05:04:05;;;;;;;12.33;11.27;;;;;;;16.05;99.95;92929.41;5030398;28;20218;-69
2022/09/03 05:06:32;;;;;;;13.70;12.60;;;;;;;15.64;100.00;92934.16;5025428;28;20291;-69
2022/09/03 05:08:58;;;;;;;13.87;12.77;;;;;;;15.59;100.00;92930.88;5010424;28;20291;-68
2022/09/03 05:11:25;;;;;;;12.50;11.40;;;;;;;15.92;100.00;92930.28;5050337;28;20193;-68
2022/09/03 05:13:53;;;;;;;13.27;12.17;;;;;;;15.97;99.92;92932.00;5015993;28;20226;-69
2022/09/03 05:16:19;;;;;;;12.20;10.80;;;;;;;16.18;99.11;92935.66;5030360;28;20277;-69
2022/09/03 05:18:45;;;;;;;11.43;10.53;;;;;;;15.89;99.15;92938.03;5029794;28;20193;-69
2022/09/03 05:21:17;;;;;;;12.37;11.23;;;;;;;16.04;98.35;92932.34;5030172;28;20187;-70
2022/09/03 05:23:45;;;;;;;11.67;10.67;;;;;;;15.72;99.30;92937.94;5029871;28;20178;-69
2022/09/03 05:26:17;;;;;;;11.70;10.80;;;;;;;15.97;98.59;92932.00;5030142;28;20202;-69
2022/09/03 05:28:43;;;;;;;15.23;10.90;;;;;;;15.88;99.19;92931.19;5029835;28;20187;-70
2022/09/03 05:31:11;;;;;;;12.30;11.30;;;;;;;16.08;98.34;92928.81;5035217;28;20181;-69
2022/09/03 05:33:42;;;;;;;12.00;11.17;;;;;;;16.01;98.24;92932.97;5041012;28;20198;-69
2022/09/03 05:36:11;;;;;;;12.87;11.77;;;;;;;16.22;97.26;92928.69;5034730;28;20182;-69
2022/09/03 05:38:37;;;;;;;13.10;11.97;;;;;;;16.14;98.18;92942.59;5049608;28;20254;-69
2022/09/03 05:41:05;;;;;;;12.80;11.83;;;;;;;16.01;98.74;92948.75;5045404;28;20171;-70
2022/09/03 05:43:32;;;;;;;12.00;11.10;;;;;;;16.01;97.87;92949.56;5029741;28;20206;-70
2022/09/03 05:46:03;;;;;;;12.07;11.17;;;;;;;16.47;96.34;92941.22;5029549;28;20264;-69
2022/09/03 05:48:29;;;;;;;10.77;9.97;;;;;;;16.55;93.69;92942.31;5029860;28;20218;-71
2022/09/03 05:51:03;;;;;;;11.83;11.03;;;;;;;16.89;90.25;92953.72;5029574;28;20190;-70
2022/09/03 05:53:31;;;;;;;11.97;10.97;;;;;;;16.57;92.12;92946.22;5029525;28;20822;-70
2022/09/03 05:55:58;;;;;;;11.40;10.53;;;;;;;17.06;89.86;92958.22;5029466;28;20248;-70
2022/09/03 05:58:28;;;;;;;11.33;10.53;;;;;;;16.58;92.24;92947.75;5030061;28;20182;-68
2022/09/03 06:00:54;;;;;;;11.43;10.63;;;;;;;16.73;89.93;92949.19;5029145;28;20220;-69
2022/09/03 06:03:19;;;;;;;11.00;10.20;;;;;;;16.63;90.12;92944.19;5030324;28;20175;-67
2022/09/03 06:05:53;;;;;;;11.40;10.60;;;;;;;16.99;89.60;92958.72;5030795;28;20242;-69
2022/09/03 06:08:18;;;;;;;11.23;10.43;;;;;;;17.28;88.33;92969.44;5050669;28;20229;-68
2022/09/03 06:10:44;;;;;;;11.87;10.97;;;;;;;16.96;88.41;92955.91;5043257;28;20219;-67
2022/09/03 06:13:10;;;;;;;11.50;10.60;;;;;;;17.12;88.08;92978.88;5039469;28;20229;-69
2022/09/03 06:15:36;;;;;;;10.23;9.53;;;;;;;17.33;86.92;92977.19;5033202;28;20218;-69
2022/09/03 06:18:01;;;;;;;10.53;9.83;;;;;;;16.74;87.85;92956.00;5033691;28;20243;-69
2022/09/03 06:20:27;;;;;;;11.00;10.13;;;;;;;17.03;87.06;92967.53;5033568;28;20223;-69
2022/09/03 06:22:53;;;;;;;11.30;10.40;;;;;;;17.11;86.77;92956.22;5033341;28;20222;-69
2022/09/03 06:25:19;;;;;;;10.47;9.77;;;;;;;16.91;87.78;92967.38;5033442;28;20223;-69
2022/09/03 06:27:44;;;;;;;10.83;10.13;;;;;;;16.80;89.47;92965.34;5033161;28;20223;-69
2022/09/03 06:30:10;;;;;;;10.57;9.83;;;;;;;16.60;90.50;92971.19;5033450;28;20230;-69
2022/09/03 06:32:44;;;;;;;11.70;10.80;;;;;;;16.87;89.73;92981.50;5033332;28;20166;-69
2022/09/03 06:35:09;;;;;;;9.93;9.23;;;;;;;16.59;90.82;92980.19;5033101;28;20249;-69
2022/09/03 06:37:41;;;;;;;11.20;10.30;;;;;;;16.88;89.56;92981.19;5032912;28;20262;-69
2022/09/03 06:40:12;;;;;;;10.97;10.17;;;;;;;16.65;88.95;92971.84;5032912;28;20214;-69
2022/09/03 06:42:39;;;;;;;10.50;9.80;;;;;;;16.73;88.74;92971.06;5043514;28;20237;-69
2022/09/03 06:45:05;;;;;;;10.67;9.97;;;;;;;17.13;87.17;92985.72;5032661;28;20256;-70
2022/09/03 06:47:32;;;;;;;10.00;9.27;;;;;;;16.67;87.84;92982.06;5032976;28;20315;-69
2022/09/03 06:49:59;;;;;;;11.03;10.23;;;;;;;16.78;88.04;92988.63;5032678;28;20222;-69
2022/09/03 06:52:24;;;;;;;11.67;10.87;;;;;;;16.45;89.39;92984.78;5047979;28;20213;-70
2022/09/03 06:54:50;;;;;;;10.33;9.63;;;;;;;16.83;87.56;92978.69;5052368;28;20226;-69
2022/09/03 06:57:15;;;;;;;10.53;9.73;;;;;;;17.43;84.86;92986.69;5038099;28;20192;-70
2022/09/03 06:59:42;;;;;;;10.53;9.63;;;;;;;17.38;86.28;92990.25;5032724;28;20250;-69
2022/09/03 07:02:08;;;;;;;10.57;9.77;;;;;;;17.14;86.38;92987.28;5045668;28;20217;-69
2022/09/03 07:04:33;;;;;;;11.83;11.03;;;;;;;17.35;85.95;92996.13;5052429;28;20302;-69
2022/09/03 07:06:59;;;;;;;11.40;10.50;;;;;;;17.23;86.02;92995.22;5039762;28;20206;-69
2022/09/03 07:09:25;;;;;;;11.37;10.57;;;;;;;17.09;85.79;92971.59;5032588;28;20234;-69
2022/09/03 07:11:51;;;;;;;11.07;10.27;;;;;;;17.21;86.74;92998.13;5040109;28;20183;-69
2022/09/03 07:14:19;;;;;;;11.10;10.30;;;;;;;17.49;85.46;93004.69;5032272;28;20240;-69
2022/09/03 07:16:45;;;;;;;12.07;11.23;;;;;;;17.83;83.77;93005.78;5042043;28;20190;-69
2022/09/03 07:19:12;;;;;;;10.93;10.13;;;;;;;17.56;82.88;92983.91;5051455;28;20229;-69
2022/09/03 07:21:41;;;;;;;11.70;10.70;;;;;;;17.54;83.36;93001.91;5051505;28;20346;-70
2022/09/03 07:24:08;;;;;;;10.70;10.00;;;;;;;17.63;83.68;92998.50;5052085;28;20218;-68
2022/09/03 07:26:36;;;;;;;10.67;9.90;;;;;;;17.48;84.56;92992.59;5051699;28;20225;-69
2022/09/03 07:29:03;;;;;;;11.30;10.50;;;;;;;17.67;84.55;93005.47;5051830;28;20260;-69
2022/09/03 07:31:32;;;;;;;11.13;10.23;;;;;;;17.77;83.98;93018.38;5050653;28;20274;-69
2022/09/03 07:33:59;;;;;;;11.23;10.33;;;;;;;18.13;82.13;93018.00;5040220;28;20299;-69
2022/09/03 07:36:28;;;;;;;10.80;10.07;;;;;;;17.70;82.44;93015.41;5039106;28;20213;-70
2022/09/03 07:38:56;;;;;;;11.00;10.20;;;;;;;18.11;82.32;93025.47;5051733;28;20301;-69
2022/09/03 07:41:22;;;;;;;11.50;10.67;;;;;;;18.24;81.16;93020.00;5051336;28;20180;-69
2022/09/03 07:43:48;;;;;;;11.30;10.50;;;;;;;17.82;83.19;93030.66;5034958;28;20232;-69
2022/09/03 07:46:17;;;;;;;11.27;10.47;;;;;;;17.94;82.80;93025.50;5031811;28;20195;-69
2022/09/03 07:48:45;;;;;;;11.87;10.87;;;;;;;17.95;82.55;93003.25;5031736;28;20254;-69
2022/09/03 07:51:11;;;;;;;11.27;10.43;;;;;;;18.41;81.79;93030.56;5031884;28;20185;-70
2022/09/03 07:53:37;;;;;;;11.23;10.43;;;;;;;18.93;78.71;93028.47;5031842;28;20211;-69
2022/09/03 07:56:05;;;;;;;11.60;10.70;;;;;;;19.32;77.63;93037.94;5031577;28;20255;-70
2022/09/03 07:58:31;;;;;;;12.47;11.43;;;;;;;19.21;76.07;93037.50;5031543;28;20184;-70
2022/09/03 08:00:58;;;;;;;11.37;10.43;;;;;;;19.46;75.66;93038.47;5035296;28;20208;-69
2022/09/03 08:03:23;;;;;;;10.23;9.37;;;;;;;19.53;73.79;93034.25;5039339;28;20250;-69
2022/09/03 08:05:49;;;;;;;10.73;9.83;;;;;;;19.47;75.28;93026.81;5031344;28;20260;-69
2022/09/03 08:08:16;;;;;;;10.77;9.97;;;;;;;19.36;75.89;93044.16;5031991;28;20233;-70
2022/09/03 08:10:42;;;;;;;11.37;10.47;;;;;;;18.79;77.76;93031.34;5032288;28;20225;-69
2022/09/03 08:13:07;;;;;;;11.20;10.40;;;;;;;18.84;77.59;93038.34;5052393;28;20203;-69
2022/09/03 08:15:33;;;;;;;11.63;10.80;;;;;;;19.05;76.59;93039.19;5050527;28;20232;-70
2022/09/03 08:17:59;;;;;;;11.43;10.63;;;;;;;19.08;76.67;93026.06;5011894;28;20210;-69
2022/09/03 08:20:26;;;;;;;10.43;9.73;;;;;;;18.89;76.66;93046.09;5011667;28;20237;-70
2022/09/03 08:22:52;;;;;;;11.23;10.43;;;;;;;18.36;79.24;93043.16;5030781;28;20181;-69
2022/09/03 08:25:17;;;;;;;9.90;9.30;;;;;;;18.71;77.69;93029.50;5031349;28;20235;-69
2022/09/03 08:27:42;;;;;;;10.53;9.83;;;;;;;18.74;78.08;93028.13;5030721;28;20276;-69
2022/09/03 08:30:11;;;;;;;10.63;9.93;;;;;;;18.81;78.27;93041.63;5031048;28;20248;-69
2022/09/03 08:32:37;;;;;;;10.60;9.90;;;;;;;19.43;74.75;93039.91;5047578;28;20189;-70
2022/09/03 08:35:05;;;;;;;10.47;9.77;;;;;;;19.43;75.45;93045.19;5050907;28;20244;-68
2022/09/03 08:37:31;;;;;;;11.17;10.37;;;;;;;19.03;77.62;93036.06;5034270;28;20226;-69
2022/09/03 08:39:59;;;;;;;10.67;9.87;;;;;;;19.15;75.50;93020.28;5030989;28;20239;-70
2022/09/03 08:42:31;;;;;;;10.40;9.70;;;;;;;19.38;74.97;93044.63;5031500;28;20255;-69
2022/09/03 08:45:05;;;;;;;11.48;10.68;;;;;;;19.72;74.32;93039.09;5029765;28;20221;-70
2022/09/03 08:47:37;;;;;;;10.90;10.10;;;;;;;19.87;73.04;93043.78;5030956;28;20216;-69
2022/09/03 08:50:03;;;;;;;11.30;10.52;;;;;;;19.79;73.58;93040.13;5030679;28;20230;-69
2022/09/03 08:52:35;;;;;;;11.50;10.60;;;;;;;19.41;75.13;93041.34;5030877;28;20196;-71
2022/09/03 08:55:09;;;;;;;10.63;9.93;;;;;;;19.13;75.88;93035.69;5030488;28;20217;-69
2022/09/03 08:57:45;;;;;;;11.07;10.27;;;;;;;19.74;74.36;93048.25;5047411;28;20191;-71
2022/09/03 09:00:12;;;;;;;11.80;10.93;;;;;;;19.20;77.14;93030.69;5033175;28;20244;-69
2022/09/03 09:02:40;;;;;;;11.17;10.47;;;;;;;18.94;76.78;93035.34;5030566;28;20181;-69
2022/09/03 09:05:11;;;;;;;11.67;10.87;;;;;;;18.98;77.90;93034.38;5030451;28;20238;-69
2022/09/03 09:07:48;;;;;;;11.13;10.33;;;;;;;19.52;76.06;93053.84;5046820;28;20254;-69
2022/09/03 09:10:17;;;;;;;11.80;10.80;;;;;;;20.04;73.01;93049.72;5050083;28;20254;-69
2022/09/03 09:13:28;;;;;;;11.33;10.53;;;;;;;19.13;77.37;93046.28;5032333;28;20197;-71
2022/09/03 09:16:07;;;;;;;11.30;10.40;;;;;;;19.23;77.35;93055.72;5028868;28;20194;-69
2022/09/03 09:18:45;;;;;;;11.43;10.53;;;;;;;19.69;74.90;93051.09;5030309;28;20229;-71
2022/09/03 09:21:11;;;;;;;11.30;10.50;;;;;;;19.15;77.56;93044.88;5030219;28;20852;-71
2022/09/03 09:23:48;;;;;;;11.88;11.05;;;;;;;19.27;77.42;93049.47;5030133;28;20279;-70
2022/09/03 09:26:16;;;;;;;10.90;10.20;;;;;;;19.43;75.87;93055.00;5030486;28;20197;-70
2022/09/03 09:28:45;;;;;;;11.00;10.20;;;;;;;19.41;76.26;93060.63;5030086;28;20188;-70
2022/09/03 09:31:17;;;;;;;11.27;10.38;;;;;;;19.65;74.96;93052.84;5030237;28;20190;-70
2022/09/03 09:33:43;;;;;;;11.13;10.32;;;;;;;19.61;76.44;93067.81;5030276;28;20188;-70
2022/09/03 09:36:14;;;;;;;10.38;9.68;;;;;;;19.75;73.88;93056.97;5029606;28;20193;-70
2022/09/03 09:38:40;;;;;;;11.35;10.55;;;;;;;19.83;74.57;93048.19;5030636;28;20177;-70
2022/09/03 09:41:09;;;;;;;12.00;11.10;;;;;;;19.63;75.04;93059.53;5034624;28;20181;-69
2022/09/03 09:43:34;;;;;;;11.90;11.00;;;;;;;19.43;75.56;93047.84;5034994;28;20194;-70
2022/09/03 09:46:11;;;;;;;12.13;11.23;;;;;;;19.88;75.05;93062.00;5029637;28;20202;-70
2022/09/03 09:48:45;;;;;;;11.23;10.32;;;;;;;19.85;73.95;93056.56;5029979;28;20220;-70
2022/09/03 09:51:21;;;;;;;11.23;10.43;;;;;;;20.23;72.98;93055.31;5035256;28;20424;-68
2022/09/03 09:53:47;;;;;;;11.32;10.43;;;;;;;20.19;73.23;93062.41;5049591;28;20188;-71
2022/09/03 09:56:23;;;;;;;11.07;10.18;;;;;;;20.05;73.16;93064.53;5039833;28;20177;-69
2022/09/03 09:58:51;;;;;;;11.25;10.35;;;;;;;20.19;74.17;93072.22;5049538;28;20231;-69
2022/09/03 10:01:24;;;;;;;11.93;10.95;;;;;;;20.15;73.08;93069.47;5048279;28;20186;-70
2022/09/03 10:03:56;;;;;;;11.73;10.82;;;;;;;20.63;72.82;93072.25;5049174;28;20240;-70
2022/09/03 10:09:12;;;;;;;11.05;10.25;;;;;;;20.85;70.30;93070.28;5029567;28;21356;-69
2022/09/03 10:11:42;;;;;;;11.38;10.52;;;;;;;20.33;72.58;93073.50;5037135;28;20212;-69
2022/09/03 10:14:34;;;;;;;11.50;10.68;;;;;;;19.78;73.75;93062.38;5029504;28;20237;-70
2022/09/03 10:17:17;;;;;;;11.95;10.85;;;;;;;20.30;72.07;93068.84;5028768;28;20185;-70
2022/09/03 10:22:52;;;;;;;10.90;10.10;;;;;;;20.79;70.04;93047.72;5029847;28;20257;-69
2022/09/03 10:25:20;;;;;;;10.85;10.05;;;;;;;21.26;69.59;93052.31;5061958;28;20258;-70
2022/09/03 10:27:45;;;;;;;10.88;9.98;;;;;;;21.18;70.07;93055.09;5047521;28;20215;-70
2022/09/03 10:30:14;;;;;;;11.10;10.30;;;;;;;21.30;69.55;93053.19;5049503;28;20227;-71
2022/09/03 10:32:58;;;;;;;10.80;10.00;;;;;;;21.53;68.51;93056.16;5031778;28;20199;-71
2022/09/03 10:35:34;;;;;;;11.05;10.25;;;;;;;21.11;68.77;93055.63;5029662;28;20238;-70
2022/09/03 10:38:02;;;;;;;11.57;10.68;;;;;;;20.41;72.38;93059.38;5010291;28;20198;-70
2022/09/03 10:40:33;;;;;;;11.52;10.50;;;;;;;20.45;71.56;93054.97;5009911;28;20229;-70
2022/09/03 10:43:17;;;;;;;12.70;11.57;;;;;;;20.31;76.02;93057.13;5020235;28;20196;-70
2022/09/03 10:45:55;;;;;;;11.80;10.90;;;;;;;21.01;71.12;93055.31;5029236;28;20939;-69
2022/09/03 10:49:02;;;;;;;12.20;11.30;;;;;;;21.22;69.63;93061.28;5027978;28;20223;-70
2022/09/03 10:51:49;;;;;;;11.88;10.98;;;;;;;21.36;70.04;93059.84;5000886;28;20249;-69
2022/09/03 10:54:21;;;;;;;11.52;10.63;;;;;;;21.52;69.95;93066.03;5029852;28;20235;-70
2022/09/03 10:57:07;;;;;;;11.73;10.80;;;;;;;21.79;67.90;93061.91;5032898;28;20221;-70
2022/09/03 10:59:35;;;;;;;11.18;10.25;;;;;;;21.57;68.80;93062.38;5033093;28;20227;-70
2022/09/03 11:02:20;;;;;;;11.77;10.77;;;;;;;21.38;69.50;93054.97;5032987;28;20264;-69
2022/09/03 11:04:50;;;;;;;10.73;9.93;;;;;;;21.74;66.27;93057.56;5032943;28;20247;-69
2022/09/03 11:07:20;;;;;;;10.98;10.15;;;;;;;20.92;69.13;93049.31;5031899;28;20212;-70
2022/09/03 11:10:05;;;;;;;10.88;10.07;;;;;;;20.79;70.97;93055.69;5064704;28;20238;-71
2022/09/03 11:12:45;;;;;;;10.70;9.90;;;;;;;20.73;69.39;93022.53;5040255;28;20184;-70
2022/09/03 11:15:22;;;;;;;11.30;10.43;;;;;;;20.67;70.98;93057.22;5031427;28;20321;-70
2022/09/03 11:17:59;;;;;;;11.23;10.38;;;;;;;21.07;70.26;93065.38;5049815;28;20186;-69
2022/09/03 11:20:26;;;;;;;10.50;9.70;;;;;;;21.32;70.47;93060.84;5052326;28;20284;-70
2022/09/03 11:22:58;;;;;;;11.45;10.55;;;;;;;21.36;70.96;93056.41;5051899;28;20207;-70
2022/09/03 11:25:31;;;;;;;9.95;9.25;;;;;;;21.32;69.94;93044.91;5052303;28;20285;-69
2022/09/03 11:28:17;;;;;;;11.02;10.27;;;;;;;21.48;69.13;93051.09;5032328;28;20208;-70
2022/09/03 11:31:01;;;;;;;10.75;10.02;;;;;;;21.02;69.29;93056.84;5031646;28;20226;-70
2022/09/03 11:33:27;;;;;;;10.57;9.88;;;;;;;21.23;67.80;93037.03;5032540;28;20179;-70
2022/09/03 11:35:59;;;;;;;10.65;9.95;;;;;;;20.82;69.11;93047.06;5031702;28;20248;-69
2022/09/03 11:38:30;;;;;;;10.18;9.52;;;;;;;21.01;68.50;93052.66;5032510;28;20193;-69
2022/09/03 11:40:58;;;;;;;10.80;10.10;;;;;;;20.87;69.30;93049.50;5031993;28;20203;-70